sensor_id;sensor_type;location;lat;lon;timestamp;P1;P2;P0
44045;PMS7003;29709;52.396;16.796;2024-03-23T00:55:52;6;4;3
44045;PMS7003;29709;52.396;16.796;2024-03-23T00:59:05;6;3;2
44045;PMS7003;29709;52.396;16.796;2024-03-23T01:02:18;6;5;4
44045;PMS7003;29709;52.396;16.796;2024-03-23T01:05:31;6;5;3
44045;PMS7003;29709;52.396;16.796;2024-03-23T01:08:45;6;3;3
44045;PMS7003;29709;52.396;16.796;2024-03-23T01:11:58;5;4;2
44045;PMS7003;29709;52.396;16.796;2024-03-23T01:15:11;5;4;3
44045;PMS7003;29709;52.396;16.796;2024-03-23T01:18:24;3;3;2
44045;PMS7003;29709;52.396;16.796;2024-03-23T01:21:41;4;3;3
44045;PMS7003;29709;52.396;16.796;2024-03-23T01:24:57;7;6;3
44045;PMS7003;29709;52.396;16.796;2024-03-23T01:28:10;5;3;3
44045;PMS7003;29709;52.396;16.796;2024-03-23T01:31:23;5;4;3
44045;PMS7003;29709;52.396;16.796;2024-03-23T01:34:36;6;3;2
44045;PMS7003;29709;52.396;16.796;2024-03-23T01:37:50;4;3;3
44045;PMS7003;29709;52.396;16.796;2024-03-23T01:41:03;4;4;2
44045;PMS7003;29709;52.396;16.796;2024-03-23T01:44:16;5;5;3
44045;PMS7003;29709;52.396;16.796;2024-03-23T01:47:30;4;4;3
44045;PMS7003;29709;52.396;16.796;2024-03-23T01:50:43;4;4;2
44045;PMS7003;29709;52.396;16.796;2024-03-23T01:53:56;6;3;3
44045;PMS7003;29709;52.396;16.796;2024-03-23T01:57:10;4;3;3
44045;PMS7003;29709;52.396;16.796;2024-03-23T02:00:26;5;5;3
44045;PMS7003;29709;52.396;16.796;2024-03-23T02:03:40;4;4;3
44045;PMS7003;29709;52.396;16.796;2024-03-23T02:06:54;5;4;3
44045;PMS7003;29709;52.396;16.796;2024-03-23T02:10:07;6;5;4
44045;PMS7003;29709;52.396;16.796;2024-03-23T02:13:22;9;6;4
44045;PMS7003;29709;52.396;16.796;2024-03-23T02:16:35;4;4;2
44045;PMS7003;29709;52.396;16.796;2024-03-23T02:19:48;4;4;3
44045;PMS7003;29709;52.396;16.796;2024-03-23T02:23:03;6;5;3
44045;PMS7003;29709;52.396;16.796;2024-03-23T02:26:18;5;4;3
44045;PMS7003;29709;52.396;16.796;2024-03-23T02:29:31;4;4;3
44045;PMS7003;29709;52.396;16.796;2024-03-23T02:32:45;6;5;4
44045;PMS7003;29709;52.396;16.796;2024-03-23T02:35:58;6;5;4
44045;PMS7003;29709;52.396;16.796;2024-03-23T02:39:12;5;4;3
44045;PMS7003;29709;52.396;16.796;2024-03-23T02:42:25;1;0;0
44045;PMS7003;29709;52.396;16.796;2024-03-23T02:45:38;5;4;3
44045;PMS7003;29709;52.396;16.796;2024-03-23T02:48:51;4;4;3
44045;PMS7003;29709;52.396;16.796;2024-03-23T02:52:05;4;4;3
44045;PMS7003;29709;52.396;16.796;2024-03-23T02:55:18;7;4;3
44045;PMS7003;29709;52.396;16.796;2024-03-23T02:58:32;3;3;2
44045;PMS7003;29709;52.396;16.796;2024-03-23T03:01:45;6;5;3
44045;PMS7003;29709;52.396;16.796;2024-03-23T03:04:58;5;5;3
44045;PMS7003;29709;52.396;16.796;2024-03-23T03:08:11;4;3;2
44045;PMS7003;29709;52.396;16.796;2024-03-23T03:11:25;5;5;3
44045;PMS7003;29709;52.396;16.796;2024-03-23T03:14:38;6;5;3
44045;PMS7003;29709;52.396;16.796;2024-03-23T03:17:51;5;3;3
44045;PMS7003;29709;52.396;16.796;2024-03-23T03:21:07;6;5;4
44045;PMS7003;29709;52.396;16.796;2024-03-23T03:24:23;3;3;2
44045;PMS7003;29709;52.396;16.796;2024-03-23T03:27:36;5;4;3
44045;PMS7003;29709;52.396;16.796;2024-03-23T03:30:50;2;2;1
44045;PMS7003;29709;52.396;16.796;2024-03-23T03:34:03;4;4;2
44045;PMS7003;29709;52.396;16.796;2024-03-23T03:37:17;5;3;2
44045;PMS7003;29709;52.396;16.796;2024-03-23T03:40:30;6;5;3
44045;PMS7003;29709;52.396;16.796;2024-03-23T03:43:43;4;3;2
44045;PMS7003;29709;52.396;16.796;2024-03-23T03:46:58;6;5;3
44045;PMS7003;29709;52.396;16.796;2024-03-23T03:50:11;3;3;2
44045;PMS7003;29709;52.396;16.796;2024-03-23T03:53:25;4;3;2
44045;PMS7003;29709;52.396;16.796;2024-03-23T03:56:39;4;4;3
44045;PMS7003;29709;52.396;16.796;2024-03-23T03:59:52;3;2;2
44045;PMS7003;29709;52.396;16.796;2024-03-23T04:03:05;4;3;2
44045;PMS7003;29709;52.396;16.796;2024-03-23T04:06:19;2;2;1
44045;PMS7003;29709;52.396;16.796;2024-03-23T04:09:32;4;3;2
44045;PMS7003;29709;52.396;16.796;2024-03-23T04:12:47;5;5;3
44045;PMS7003;29709;52.396;16.796;2024-03-23T04:16:01;4;4;3
44045;PMS7003;29709;52.396;16.796;2024-03-23T04:19:14;6;4;3
44045;PMS7003;29709;52.396;16.796;2024-03-23T04:22:27;2;2;1
44045;PMS7003;29709;52.396;16.796;2024-03-23T04:25:41;1;0;0
44045;PMS7003;29709;52.396;16.796;2024-03-23T04:28:54;0;0;0
44045;PMS7003;29709;52.396;16.796;2024-03-23T04:32:07;0;0;0
44045;PMS7003;29709;52.396;16.796;2024-03-23T04:35:20;0;0;0
44045;PMS7003;29709;52.396;16.796;2024-03-23T04:38:37;0;0;0
44045;PMS7003;29709;52.396;16.796;2024-03-23T04:41:50;0;0;0
44045;PMS7003;29709;52.396;16.796;2024-03-23T04:45:04;0;0;0
44045;PMS7003;29709;52.396;16.796;2024-03-23T04:48:19;0;0;0
44045;PMS7003;29709;52.396;16.796;2024-03-23T04:51:35;0;0;0
44045;PMS7003;29709;52.396;16.796;2024-03-23T04:54:58;0;0;0
44045;PMS7003;29709;52.396;16.796;2024-03-23T04:58:11;0;0;0
44045;PMS7003;29709;52.396;16.796;2024-03-23T05:01:24;0;0;0
44045;PMS7003;29709;52.396;16.796;2024-03-23T05:04:38;0;0;0
44045;PMS7003;29709;52.396;16.796;2024-03-23T05:07:53;0;0;0
44045;PMS7003;29709;52.396;16.796;2024-03-23T05:11:06;0;0;0
44045;PMS7003;29709;52.396;16.796;2024-03-23T05:14:19;0;0;0
44045;PMS7003;29709;52.396;16.796;2024-03-23T05:17:33;0;0;0
44045;PMS7003;29709;52.396;16.796;2024-03-23T05:20:46;0;0;0
44045;PMS7003;29709;52.396;16.796;2024-03-23T05:24:00;0;0;0
44045;PMS7003;29709;52.396;16.796;2024-03-23T05:27:13;0;0;0
44045;PMS7003;29709;52.396;16.796;2024-03-23T05:30:26;0;0;0
44045;PMS7003;29709;52.396;16.796;2024-03-23T05:33:39;0;0;0
44045;PMS7003;29709;52.396;16.796;2024-03-23T05:36:53;1;0;0
44045;PMS7003;29709;52.396;16.796;2024-03-23T05:40:07;0;0;0
44045;PMS7003;29709;52.396;16.796;2024-03-23T05:43:22;0;0;0
44045;PMS7003;29709;52.396;16.796;2024-03-23T05:46:36;0;0;0
44045;PMS7003;29709;52.396;16.796;2024-03-23T05:49:49;0;0;0
44045;PMS7003;29709;52.396;16.796;2024-03-23T05:53:04;0;0;0
44045;PMS7003;29709;52.396;16.796;2024-03-23T05:56:20;1;0;0
44045;PMS7003;29709;52.396;16.796;2024-03-23T05:59:34;0;0;0
44045;PMS7003;29709;52.396;16.796;2024-03-23T06:02:47;0;0;0
44045;PMS7003;29709;52.396;16.796;2024-03-23T06:06:01;2;0;0
44045;PMS7003;29709;52.396;16.796;2024-03-23T06:09:15;0;0;0
44045;PMS7003;29709;52.396;16.796;2024-03-23T06:12:28;1;0;0
44045;PMS7003;29709;52.396;16.796;2024-03-23T06:15:41;0;0;0
44045;PMS7003;29709;52.396;16.796;2024-03-23T06:18:55;0;0;0
44045;PMS7003;29709;52.396;16.796;2024-03-23T06:22:08;1;0;0
44045;PMS7003;29709;52.396;16.796;2024-03-23T06:25:21;1;1;1
44045;PMS7003;29709;52.396;16.796;2024-03-23T06:28:35;3;1;1
44045;PMS7003;29709;52.396;16.796;2024-03-23T06:35:08;1;1;0
44045;PMS7003;29709;52.396;16.796;2024-03-23T06:38:22;0;0;0
44045;PMS7003;29709;52.396;16.796;2024-03-23T06:41:35;1;1;1
44045;PMS7003;29709;52.396;16.796;2024-03-23T06:44:48;5;3;3
44045;PMS7003;29709;52.396;16.796;2024-03-23T06:48:01;10;9;7
44045;PMS7003;29709;52.396;16.796;2024-03-23T06:51:16;9;7;5
44045;PMS7003;29709;52.396;16.796;2024-03-23T06:54:29;2;0;0
44045;PMS7003;29709;52.396;16.796;2024-03-23T06:57:42;1;1;1
44045;PMS7003;29709;52.396;16.796;2024-03-23T07:00:56;0;0;0
44045;PMS7003;29709;52.396;16.796;2024-03-23T07:04:09;0;0;0
44045;PMS7003;29709;52.396;16.796;2024-03-23T07:07:22;1;0;0
44045;PMS7003;29709;52.396;16.796;2024-03-23T07:10:38;0;0;0
44045;PMS7003;29709;52.396;16.796;2024-03-23T07:13:53;2;1;1
44045;PMS7003;29709;52.396;16.796;2024-03-23T07:17:09;1;1;0
44045;PMS7003;29709;52.396;16.796;2024-03-23T07:20:23;1;1;0
44045;PMS7003;29709;52.396;16.796;2024-03-23T07:23:37;0;0;0
44045;PMS7003;29709;52.396;16.796;2024-03-23T07:26:50;1;0;0
44045;PMS7003;29709;52.396;16.796;2024-03-23T07:30:08;1;1;1
44045;PMS7003;29709;52.396;16.796;2024-03-23T07:33:21;4;3;1
44045;PMS7003;29709;52.396;16.796;2024-03-23T07:36:34;2;1;0
44045;PMS7003;29709;52.396;16.796;2024-03-23T07:39:48;1;0;0
44045;PMS7003;29709;52.396;16.796;2024-03-23T07:43:01;1;1;0
44045;PMS7003;29709;52.396;16.796;2024-03-23T07:46:15;2;0;0
44045;PMS7003;29709;52.396;16.796;2024-03-23T07:49:28;0;0;0
44045;PMS7003;29709;52.396;16.796;2024-03-23T07:52:42;0;0;0
44045;PMS7003;29709;52.396;16.796;2024-03-23T07:55:59;1;1;0
44045;PMS7003;29709;52.396;16.796;2024-03-23T07:59:14;1;1;0
44045;PMS7003;29709;52.396;16.796;2024-03-23T08:02:27;0;0;0
44045;PMS7003;29709;52.396;16.796;2024-03-23T08:05:40;0;0;0
44045;PMS7003;29709;52.396;16.796;2024-03-23T08:08:54;1;1;1
44045;PMS7003;29709;52.396;16.796;2024-03-23T08:12:15;2;1;0
44045;PMS7003;29709;52.396;16.796;2024-03-23T08:15:30;0;0;0
44045;PMS7003;29709;52.396;16.796;2024-03-23T08:18:45;0;0;0
44045;PMS7003;29709;52.396;16.796;2024-03-23T08:21:59;0;0;0
44045;PMS7003;29709;52.396;16.796;2024-03-23T08:25:12;1;0;0
44045;PMS7003;29709;52.396;16.796;2024-03-23T08:28:25;2;1;1
44045;PMS7003;29709;52.396;16.796;2024-03-23T08:31:39;0;0;0
44045;PMS7003;29709;52.396;16.796;2024-03-23T08:34:53;2;1;1
44045;PMS7003;29709;52.396;16.796;2024-03-23T08:38:06;1;1;0
44045;PMS7003;29709;52.396;16.796;2024-03-23T08:41:19;0;0;0
44045;PMS7003;29709;52.396;16.796;2024-03-23T08:44:32;1;1;1
44045;PMS7003;29709;52.396;16.796;2024-03-23T08:47:46;1;0;0
44045;PMS7003;29709;52.396;16.796;2024-03-23T08:51:02;1;1;0
44045;PMS7003;29709;52.396;16.796;2024-03-23T08:54:16;1;1;1
44045;PMS7003;29709;52.396;16.796;2024-03-23T08:57:29;2;1;0
44045;PMS7003;29709;52.396;16.796;2024-03-23T09:00:42;1;1;0
44045;PMS7003;29709;52.396;16.796;2024-03-23T09:03:56;3;1;1
44045;PMS7003;29709;52.396;16.796;2024-03-23T09:07:09;1;0;0
44045;PMS7003;29709;52.396;16.796;2024-03-23T09:10:22;1;1;0
44045;PMS7003;29709;52.396;16.796;2024-03-23T09:13:36;1;1;0
44045;PMS7003;29709;52.396;16.796;2024-03-23T09:16:50;1;1;0
44045;PMS7003;29709;52.396;16.796;2024-03-23T09:20:04;2;1;1
44045;PMS7003;29709;52.396;16.796;2024-03-23T09:23:17;1;1;0
44045;PMS7003;29709;52.396;16.796;2024-03-23T09:26:31;1;1;0
44045;PMS7003;29709;52.396;16.796;2024-03-23T09:29:45;4;2;1
44045;PMS7003;29709;52.396;16.796;2024-03-23T09:32:58;0;0;0
44045;PMS7003;29709;52.396;16.796;2024-03-23T09:36:11;1;1;1
44045;PMS7003;29709;52.396;16.796;2024-03-23T09:39:24;1;1;0
44045;PMS7003;29709;52.396;16.796;2024-03-23T09:42:38;1;1;1
44045;PMS7003;29709;52.396;16.796;2024-03-23T09:45:51;1;1;0
44045;PMS7003;29709;52.396;16.796;2024-03-23T09:49:08;3;3;2
44045;PMS7003;29709;52.396;16.796;2024-03-23T09:52:22;3;1;0
44045;PMS7003;29709;52.396;16.796;2024-03-23T09:55:36;10;9;6
44045;PMS7003;29709;52.396;16.796;2024-03-23T09:58:49;2;1;0
44045;PMS7003;29709;52.396;16.796;2024-03-23T10:02:02;1;1;0
44045;PMS7003;29709;52.396;16.796;2024-03-23T10:05:20;5;3;2
44045;PMS7003;29709;52.396;16.796;2024-03-23T10:08:37;4;2;1
44045;PMS7003;29709;52.396;16.796;2024-03-23T10:11:51;2;1;1
44045;PMS7003;29709;52.396;16.796;2024-03-23T10:15:08;1;0;0
44045;PMS7003;29709;52.396;16.796;2024-03-23T10:18:27;2;2;1
44045;PMS7003;29709;52.396;16.796;2024-03-23T10:21:51;1;1;0
44045;PMS7003;29709;52.396;16.796;2024-03-23T10:25:09;3;2;1
44045;PMS7003;29709;52.396;16.796;2024-03-23T10:28:23;1;0;0
44045;PMS7003;29709;52.396;16.796;2024-03-23T10:31:36;1;0;0
44045;PMS7003;29709;52.396;16.796;2024-03-23T10:34:54;1;0;0
44045;PMS7003;29709;52.396;16.796;2024-03-23T10:38:07;1;1;0
44045;PMS7003;29709;52.396;16.796;2024-03-23T10:41:21;2;1;0
44045;PMS7003;29709;52.396;16.796;2024-03-23T10:44:34;0;0;0
44045;PMS7003;29709;52.396;16.796;2024-03-23T10:47:47;0;0;0
44045;PMS7003;29709;52.396;16.796;2024-03-23T10:51:01;2;0;0
44045;PMS7003;29709;52.396;16.796;2024-03-23T10:54:14;1;1;1
44045;PMS7003;29709;52.396;16.796;2024-03-23T10:57:33;1;1;1
44045;PMS7003;29709;52.396;16.796;2024-03-23T11:00:52;2;2;1
44045;PMS7003;29709;52.396;16.796;2024-03-23T11:04:06;1;1;0
44045;PMS7003;29709;52.396;16.796;2024-03-23T11:10:44;1;1;1
44045;PMS7003;29709;52.396;16.796;2024-03-23T11:13:58;1;1;0
44045;PMS7003;29709;52.396;16.796;2024-03-23T11:17:12;1;1;1
44045;PMS7003;29709;52.396;16.796;2024-03-23T11:20:36;2;1;1
44045;PMS7003;29709;52.396;16.796;2024-03-23T11:23:49;1;0;0
44045;PMS7003;29709;52.396;16.796;2024-03-23T11:27:15;0;0;0
44045;PMS7003;29709;52.396;16.796;2024-03-23T11:30:27;0;0;0
44045;PMS7003;29709;52.396;16.796;2024-03-23T11:33:42;1;1;0
44045;PMS7003;29709;52.396;16.796;2024-03-23T11:37:03;1;1;0
44045;PMS7003;29709;52.396;16.796;2024-03-23T11:40:19;1;1;1
44045;PMS7003;29709;52.396;16.796;2024-03-23T11:43:33;0;0;0
44045;PMS7003;29709;52.396;16.796;2024-03-23T11:46:46;1;1;0
44045;PMS7003;29709;52.396;16.796;2024-03-23T11:50:00;1;0;0
44045;PMS7003;29709;52.396;16.796;2024-03-23T11:56:36;0;0;0
44045;PMS7003;29709;52.396;16.796;2024-03-23T11:59:49;1;0;0
44045;PMS7003;29709;52.396;16.796;2024-03-23T12:03:02;0;0;0
44045;PMS7003;29709;52.396;16.796;2024-03-23T12:06:19;1;0;0
44045;PMS7003;29709;52.396;16.796;2024-03-23T12:09:33;1;1;0
44045;PMS7003;29709;52.396;16.796;2024-03-23T12:12:58;3;1;0
44045;PMS7003;29709;52.396;16.796;2024-03-23T12:16:15;1;1;0
44045;PMS7003;29709;52.396;16.796;2024-03-23T12:19:30;1;1;1
44045;PMS7003;29709;52.396;16.796;2024-03-23T12:22:43;2;1;0
44045;PMS7003;29709;52.396;16.796;2024-03-23T12:25:59;2;1;1
44045;PMS7003;29709;52.396;16.796;2024-03-23T12:29:13;2;1;1
44045;PMS7003;29709;52.396;16.796;2024-03-23T12:32:26;1;1;1
44045;PMS7003;29709;52.396;16.796;2024-03-23T12:35:39;14;9;6
44045;PMS7003;29709;52.396;16.796;2024-03-23T12:38:52;2;1;1
44045;PMS7003;29709;52.396;16.796;2024-03-23T12:42:05;0;0;0
44045;PMS7003;29709;52.396;16.796;2024-03-23T12:45:19;2;1;0
44045;PMS7003;29709;52.396;16.796;2024-03-23T12:48:32;3;2;1
44045;PMS7003;29709;52.396;16.796;2024-03-23T12:51:47;2;1;1
44045;PMS7003;29709;52.396;16.796;2024-03-23T12:55:09;1;0;0
44045;PMS7003;29709;52.396;16.796;2024-03-23T12:58:22;1;0;0
44045;PMS7003;29709;52.396;16.796;2024-03-23T13:01:35;0;0;0
44045;PMS7003;29709;52.396;16.796;2024-03-23T13:08:08;0;0;0
44045;PMS7003;29709;52.396;16.796;2024-03-23T13:11:22;0;0;0
44045;PMS7003;29709;52.396;16.796;2024-03-23T13:14:35;0;0;0
44045;PMS7003;29709;52.396;16.796;2024-03-23T13:17:48;0;0;0
44045;PMS7003;29709;52.396;16.796;2024-03-23T13:21:04;0;0;0
44045;PMS7003;29709;52.396;16.796;2024-03-23T13:24:18;0;0;0
44045;PMS7003;29709;52.396;16.796;2024-03-23T13:27:35;1;0;0
44045;PMS7003;29709;52.396;16.796;2024-03-23T13:30:55;0;0;0
44045;PMS7003;29709;52.396;16.796;2024-03-23T13:34:10;0;0;0
44045;PMS7003;29709;52.396;16.796;2024-03-23T13:37:24;0;0;0
44045;PMS7003;29709;52.396;16.796;2024-03-23T13:40:37;0;0;0
44045;PMS7003;29709;52.396;16.796;2024-03-23T13:43:51;0;0;0
44045;PMS7003;29709;52.396;16.796;2024-03-23T13:47:04;0;0;0
44045;PMS7003;29709;52.396;16.796;2024-03-23T13:50:18;0;0;0
44045;PMS7003;29709;52.396;16.796;2024-03-23T13:53:31;0;0;0
44045;PMS7003;29709;52.396;16.796;2024-03-23T13:56:48;0;0;0
44045;PMS7003;29709;52.396;16.796;2024-03-23T14:00:02;0;0;0
44045;PMS7003;29709;52.396;16.796;2024-03-23T14:03:17;0;0;0
44045;PMS7003;29709;52.396;16.796;2024-03-23T14:06:33;2;1;0
44045;PMS7003;29709;52.396;16.796;2024-03-23T14:09:46;0;0;0
44045;PMS7003;29709;52.396;16.796;2024-03-23T14:13:00;0;0;0
44045;PMS7003;29709;52.396;16.796;2024-03-23T14:16:13;0;0;0
44045;PMS7003;29709;52.396;16.796;2024-03-23T14:19:26;0;0;0
44045;PMS7003;29709;52.396;16.796;2024-03-23T14:22:39;1;1;1
44045;PMS7003;29709;52.396;16.796;2024-03-23T14:25:54;0;0;0
44045;PMS7003;29709;52.396;16.796;2024-03-23T14:29:08;0;0;0
44045;PMS7003;29709;52.396;16.796;2024-03-23T14:32:22;0;0;0
44045;PMS7003;29709;52.396;16.796;2024-03-23T14:35:35;0;0;0
44045;PMS7003;29709;52.396;16.796;2024-03-23T14:38:49;0;0;0
44045;PMS7003;29709;52.396;16.796;2024-03-23T14:42:02;0;0;0
44045;PMS7003;29709;52.396;16.796;2024-03-23T14:45:16;0;0;0
44045;PMS7003;29709;52.396;16.796;2024-03-23T14:48:31;0;0;0
44045;PMS7003;29709;52.396;16.796;2024-03-23T14:51:45;2;1;0
44045;PMS7003;29709;52.396;16.796;2024-03-23T14:54:59;0;0;0
44045;PMS7003;29709;52.396;16.796;2024-03-23T14:58:12;0;0;0
44045;PMS7003;29709;52.396;16.796;2024-03-23T15:01:25;0;0;0
44045;PMS7003;29709;52.396;16.796;2024-03-23T15:04:39;0;0;0
44045;PMS7003;29709;52.396;16.796;2024-03-23T15:07:54;0;0;0
44045;PMS7003;29709;52.396;16.796;2024-03-23T15:11:07;0;0;0
44045;PMS7003;29709;52.396;16.796;2024-03-23T15:14:21;0;0;0
44045;PMS7003;29709;52.396;16.796;2024-03-23T15:17:36;0;0;0
44045;PMS7003;29709;52.396;16.796;2024-03-23T15:20:57;0;0;0
44045;PMS7003;29709;52.396;16.796;2024-03-23T15:24:15;0;0;0
44045;PMS7003;29709;52.396;16.796;2024-03-23T15:27:28;0;0;0
44045;PMS7003;29709;52.396;16.796;2024-03-23T15:30:42;0;0;0
44045;PMS7003;29709;52.396;16.796;2024-03-23T15:33:55;0;0;0
44045;PMS7003;29709;52.396;16.796;2024-03-23T15:37:08;0;0;0
44045;PMS7003;29709;52.396;16.796;2024-03-23T15:40:22;0;0;0
44045;PMS7003;29709;52.396;16.796;2024-03-23T15:43:35;0;0;0
44045;PMS7003;29709;52.396;16.796;2024-03-23T15:46:50;0;0;0
44045;PMS7003;29709;52.396;16.796;2024-03-23T15:50:04;0;0;0
44045;PMS7003;29709;52.396;16.796;2024-03-23T15:53:21;0;0;0
44045;PMS7003;29709;52.396;16.796;2024-03-23T15:56:35;0;0;0
44045;PMS7003;29709;52.396;16.796;2024-03-23T15:59:49;0;0;0
44045;PMS7003;29709;52.396;16.796;2024-03-23T16:03:03;0;0;0
44045;PMS7003;29709;52.396;16.796;2024-03-23T16:06:16;0;0;0
44045;PMS7003;29709;52.396;16.796;2024-03-23T16:09:30;0;0;0
44045;PMS7003;29709;52.396;16.796;2024-03-23T16:12:43;0;0;0
44045;PMS7003;29709;52.396;16.796;2024-03-23T16:15:57;1;1;0
44045;PMS7003;29709;52.396;16.796;2024-03-23T16:19:11;0;0;0
44045;PMS7003;29709;52.396;16.796;2024-03-23T16:22:26;0;0;0
44045;PMS7003;29709;52.396;16.796;2024-03-23T16:25:45;0;0;0
44045;PMS7003;29709;52.396;16.796;2024-03-23T16:29:10;0;0;0
44045;PMS7003;29709;52.396;16.796;2024-03-23T16:32:24;0;0;0
44045;PMS7003;29709;52.396;16.796;2024-03-23T16:35:37;0;0;0
44045;PMS7003;29709;52.396;16.796;2024-03-23T16:38:50;0;0;0
44045;PMS7003;29709;52.396;16.796;2024-03-23T16:42:04;0;0;0
44045;PMS7003;29709;52.396;16.796;2024-03-23T16:45:18;0;0;0
44045;PMS7003;29709;52.396;16.796;2024-03-23T16:48:31;0;0;0
44045;PMS7003;29709;52.396;16.796;2024-03-23T16:51:46;0;0;0
44045;PMS7003;29709;52.396;16.796;2024-03-23T16:54:59;0;0;0
44045;PMS7003;29709;52.396;16.796;2024-03-23T16:58:12;0;0;0
44045;PMS7003;29709;52.396;16.796;2024-03-23T17:01:26;0;0;0
44045;PMS7003;29709;52.396;16.796;2024-03-23T17:04:42;0;0;0
44045;PMS7003;29709;52.396;16.796;2024-03-23T17:07:55;0;0;0
44045;PMS7003;29709;52.396;16.796;2024-03-23T17:11:11;1;1;0
44045;PMS7003;29709;52.396;16.796;2024-03-23T17:14:26;0;0;0
44045;PMS7003;29709;52.396;16.796;2024-03-23T17:17:39;0;0;0
44045;PMS7003;29709;52.396;16.796;2024-03-23T17:20:53;0;0;0
44045;PMS7003;29709;52.396;16.796;2024-03-23T17:24:06;0;0;0
44045;PMS7003;29709;52.396;16.796;2024-03-23T17:27:21;0;0;0
44045;PMS7003;29709;52.396;16.796;2024-03-23T17:30:36;0;0;0
44045;PMS7003;29709;52.396;16.796;2024-03-23T17:33:49;0;0;0
44045;PMS7003;29709;52.396;16.796;2024-03-23T17:37:08;0;0;0
44045;PMS7003;29709;52.396;16.796;2024-03-23T17:40:27;0;0;0
44045;PMS7003;29709;52.396;16.796;2024-03-23T17:43:41;0;0;0
44045;PMS7003;29709;52.396;16.796;2024-03-23T17:46:54;0;0;0
44045;PMS7003;29709;52.396;16.796;2024-03-23T17:50:08;1;0;0
44045;PMS7003;29709;52.396;16.796;2024-03-23T17:53:22;0;0;0
44045;PMS7003;29709;52.396;16.796;2024-03-23T17:56:35;1;1;0
44045;PMS7003;29709;52.396;16.796;2024-03-23T17:59:48;0;0;0
44045;PMS7003;29709;52.396;16.796;2024-03-23T18:03:02;1;0;0
44045;PMS7003;29709;52.396;16.796;2024-03-23T18:06:16;1;1;0
44045;PMS7003;29709;52.396;16.796;2024-03-23T18:09:30;0;0;0
44045;PMS7003;29709;52.396;16.796;2024-03-23T18:12:43;0;0;0
44045;PMS7003;29709;52.396;16.796;2024-03-23T18:16:00;1;1;0
44045;PMS7003;29709;52.396;16.796;2024-03-23T18:19:14;0;0;0
44045;PMS7003;29709;52.396;16.796;2024-03-23T18:22:27;5;4;3
44045;PMS7003;29709;52.396;16.796;2024-03-23T18:25:40;3;3;2
44045;PMS7003;29709;52.396;16.796;2024-03-23T18:28:54;7;4;2
44045;PMS7003;29709;52.396;16.796;2024-03-23T18:32:08;2;2;1
44045;PMS7003;29709;52.396;16.796;2024-03-23T18:35:22;5;3;2
44045;PMS7003;29709;52.396;16.796;2024-03-23T18:38:35;3;2;0
44045;PMS7003;29709;52.396;16.796;2024-03-23T18:41:48;6;4;3
44045;PMS7003;29709;52.396;16.796;2024-03-23T18:45:01;3;2;1
44045;PMS7003;29709;52.396;16.796;2024-03-23T18:48:15;4;4;3
44045;PMS7003;29709;52.396;16.796;2024-03-23T18:51:28;5;4;4
44045;PMS7003;29709;52.396;16.796;2024-03-23T18:54:42;0;0;0
44045;PMS7003;29709;52.396;16.796;2024-03-23T19:00:40;1;0;0
44045;PMS7003;29709;52.396;16.796;2024-03-23T19:03:54;3;3;2
44045;PMS7003;29709;52.396;16.796;2024-03-23T19:07:07;1;1;1
44045;PMS7003;29709;52.396;16.796;2024-03-23T19:10:21;2;2;2
44045;PMS7003;29709;52.396;16.796;2024-03-23T19:13:34;1;1;1
44045;PMS7003;29709;52.396;16.796;2024-03-23T19:16:48;1;1;0
44045;PMS7003;29709;52.396;16.796;2024-03-23T19:20:07;3;1;0
44045;PMS7003;29709;52.396;16.796;2024-03-23T19:23:22;1;1;1
44045;PMS7003;29709;52.396;16.796;2024-03-23T19:26:37;2;1;1
44045;PMS7003;29709;52.396;16.796;2024-03-23T19:29:51;3;3;1
44045;PMS7003;29709;52.396;16.796;2024-03-23T19:33:05;2;2;1
44045;PMS7003;29709;52.396;16.796;2024-03-23T19:36:18;3;3;2
44045;PMS7003;29709;52.396;16.796;2024-03-23T19:39:31;3;1;0
44045;PMS7003;29709;52.396;16.796;2024-03-23T19:42:45;1;1;1
44045;PMS7003;29709;52.396;16.796;2024-03-23T19:46:02;5;1;1
44045;PMS7003;29709;52.396;16.796;2024-03-23T19:49:16;0;0;0
44045;PMS7003;29709;52.396;16.796;2024-03-23T19:52:31;1;1;1
44045;PMS7003;29709;52.396;16.796;2024-03-23T19:55:44;3;2;2
44045;PMS7003;29709;52.396;16.796;2024-03-23T19:59:08;4;2;2
44045;PMS7003;29709;52.396;16.796;2024-03-23T20:02:23;7;6;4
44045;PMS7003;29709;52.396;16.796;2024-03-23T20:05:36;5;4;3
44045;PMS7003;29709;52.396;16.796;2024-03-23T20:08:50;4;3;1
44045;PMS7003;29709;52.396;16.796;2024-03-23T20:12:03;7;4;2
44045;PMS7003;29709;52.396;16.796;2024-03-23T20:15:18;4;2;1
44045;PMS7003;29709;52.396;16.796;2024-03-23T20:18:32;3;2;1
44045;PMS7003;29709;52.396;16.796;2024-03-23T20:21:45;3;1;0
44045;PMS7003;29709;52.396;16.796;2024-03-23T20:24:59;2;1;1
44045;PMS7003;29709;52.396;16.796;2024-03-23T20:28:12;3;1;1
44045;PMS7003;29709;52.396;16.796;2024-03-23T20:31:26;1;1;0
44045;PMS7003;29709;52.396;16.796;2024-03-23T20:34:39;4;2;1
44045;PMS7003;29709;52.396;16.796;2024-03-23T20:37:52;1;1;1
44045;PMS7003;29709;52.396;16.796;2024-03-23T20:41:06;2;1;1
44045;PMS7003;29709;52.396;16.796;2024-03-23T20:44:20;3;3;1
44045;PMS7003;29709;52.396;16.796;2024-03-23T20:47:35;1;1;0
44045;PMS7003;29709;52.396;16.796;2024-03-23T20:54:14;3;3;1
44045;PMS7003;29709;52.396;16.796;2024-03-23T20:57:28;1;1;0
44045;PMS7003;29709;52.396;16.796;2024-03-23T21:00:42;5;2;1
44045;PMS7003;29709;52.396;16.796;2024-03-23T21:03:55;4;1;1
44045;PMS7003;29709;52.396;16.796;2024-03-23T21:07:08;1;0;0
44045;PMS7003;29709;52.396;16.796;2024-03-23T21:10:22;1;1;0
44045;PMS7003;29709;52.396;16.796;2024-03-23T21:13:39;4;2;1
44045;PMS7003;29709;52.396;16.796;2024-03-23T21:16:53;2;1;0
44045;PMS7003;29709;52.396;16.796;2024-03-23T21:20:06;1;0;0
44045;PMS7003;29709;52.396;16.796;2024-03-23T21:23:21;1;1;0
44045;PMS7003;29709;52.396;16.796;2024-03-23T21:26:34;2;1;1
44045;PMS7003;29709;52.396;16.796;2024-03-23T21:29:47;1;1;0
44045;PMS7003;29709;52.396;16.796;2024-03-23T21:33:02;3;1;0
44045;PMS7003;29709;52.396;16.796;2024-03-23T21:36:17;1;1;1
44045;PMS7003;29709;52.396;16.796;2024-03-23T21:39:31;1;1;0
44045;PMS7003;29709;52.396;16.796;2024-03-23T21:42:45;2;1;0
44045;PMS7003;29709;52.396;16.796;2024-03-23T21:45:59;1;1;1
44045;PMS7003;29709;52.396;16.796;2024-03-23T21:49:13;3;1;0
44045;PMS7003;29709;52.396;16.796;2024-03-23T21:52:26;3;2;2
44045;PMS7003;29709;52.396;16.796;2024-03-23T21:59:03;3;2;1
44045;PMS7003;29709;52.396;16.796;2024-03-23T22:02:16;1;1;1
44045;PMS7003;29709;52.396;16.796;2024-03-23T22:05:30;3;1;1
44045;PMS7003;29709;52.396;16.796;2024-03-23T22:08:44;3;2;1
44045;PMS7003;29709;52.396;16.796;2024-03-23T22:11:59;2;2;2
44045;PMS7003;29709;52.396;16.796;2024-03-23T22:15:13;3;2;2
44045;PMS7003;29709;52.396;16.796;2024-03-23T22:18:26;4;3;1
44045;PMS7003;29709;52.396;16.796;2024-03-23T22:21:40;6;4;3
44045;PMS7003;29709;52.396;16.796;2024-03-23T22:24:53;2;2;1
44045;PMS7003;29709;52.396;16.796;2024-03-23T22:28:06;2;1;1
44045;PMS7003;29709;52.396;16.796;2024-03-23T22:31:19;0;0;0
44045;PMS7003;29709;52.396;16.796;2024-03-23T22:34:33;3;2;1
44045;PMS7003;29709;52.396;16.796;2024-03-23T22:37:46;3;3;1
44045;PMS7003;29709;52.396;16.796;2024-03-23T22:41:00;3;1;1
44045;PMS7003;29709;52.396;16.796;2024-03-23T22:44:15;3;2;1